Chiang Rai International Airport
VTCT : now visible

Airfield :











YOU CAN JOIN US ON...

 
LOGIN :

Register | Disclaimer

   EN    FR    IT 

 









Legend :    VFR   Marginal VFR   IFR   Intensive IFR   Very Intensive IFR
Visi :
Ceiling :
>= 8 km
>= 3000ft
5 to 8 km
1000 to 3000 ft
1500m to 5 km
500 to 1000 ft
800 to 1500m
200 to 500 ft
< 800m
< 200 ft
Symbols :   Thunderstorms  Fog  Heavy snow  Heavy precipitations  Wind > 20 kt






- Airport Elevation : 1280 ft
- IATA code : CEI


VTCT - Chiang Rai International

CURRENT METAR :
  • 020300Z 00000KT 9000 SCT012 26/24 Q1016 NOSIG

EXPIRED METARs :
  • 020200Z 00000KT 7000 FEW005 BKN048 23/23 Q1016 NOSIG
  • 020100Z 00000KT 7000 SCT005 BKN045 22/22 Q1015 NOSIG
  • 020000Z 00000KT 4500 BR BCFG FEW005 SCT044 21/21 Q1014 BECMG TL0130 NSW

TAF TAF VTCT
Valid from the 02 at 00:00 until the 03 at 06:00 UTC


012300Z 0200/0306 36005KT 9999 SCT040
TEMPO 0208/0214 -TSRA FEW025CB BKN035
BECMG 0211/0213 27005KT
VTBB FIR / Asia



MET'MAP, your aeronautical weather chart ! - Copyright ORBIFLY December 2007 - Disclaimer

ORBIFLY MET'MAP TEAM :

Programming & Development : Alexandra Zaïnal
Original concept : Baudouin d'Aumeries
Technical & hardware support : Manuel Goepfert
Assistance : Marc-Olivier Méhu




SOURCES & CREDITS :

   NOAA       Earth
Advisory